If you wish to contribute or participate in the discussions about articles you are invited to join SKYbrary as a registered user

 Actions

Sao Paulo/Guarulhos International Airport

From SKYbrary Wiki

SBGR
Airport
ICAO: SBGR – IATA: GRU
Summary
Name Sao Paulo/Guarulhos International Airport
Region South America and Caribbean
Territory Brazil BR.gif
Location Guarulhos, São Paulo
Serving São Paulo
Elevation 749.503 m
2,459 ft
2,459 ft749.503 m
Coordinates 23° 26' 6.00" S, 46° 28' 23.99" W
Runways
Designator Length Width Surface ROPS
09L/27R 3700 m12,139.108 ft
45 m147.638 ft
ASP yes/yes
09R/27L 3000 m9,842.52 ft
45 m147.638 ft
ASP yes/yes


METAR
Observation SBGR 171600Z 04006KT 9999 FEW040 28/19 Q1019
Station Guarulhos Civ / Mil
Date/Time 17 October 2019 16:00:00
Wind direction 40°
Wind speed 06 kts
Lowest cloud amount few clouds
Temperature 28°C
Dew point 19°C
Humidity 58%
QNH 1019 hPa
Weather condition n/a

São Paulo/Guarulhos–Governador André Franco Montoro International Airport, often referred to as GRU Airport, or simply GRU, is the primary international airport serving São Paulo. It is popularly known locally as Cumbica Airport.

Climatology

Humid “subtropical” climate (Köppen climate classification Cfa)

Maps

Terrain

Loading map...

Airport Layout

Loading map...


Accidents & Serious Incidents at or in vicinity of SBGR

None on SKYbrary